La Crosse, WI (54601)

6:05 PM CDT on August 27, 2016 (GMT -0500)
East | | Change Station

Elev 653 ft 43.78 °N, 91.22 °W | Updated 53 seconds ago

Overcast
Overcast
69.4 °F
Feels Like 69.4 °F
N
1.1
Wind Variable Wind from NNW
Gusts 2.0 mph

Today
High -- | Low -- °F
--% Chance of Precip.
Yesterday
High -- | Low -- °F
Precip. -- in
Pressure 29.99 in
Visibility 10.0 miles
Clouds Overcast 1600 ft
Dew Point 66 °F
Humidity 89%
Rainfall 0.09 in
Snow Depth Not available.
6:23 AM 7:48 PM
Waning Crescent, 21% visible
METAR KLSE 272253Z 15005KT 10SM OVC016 22/18 A3001 RMK AO2 SLP155 T02170183
Pressure 29.99 in
Visibility 10.0 miles
Clouds Overcast 1600 ft
Dew Point 66 °F
Humidity 89%
Rainfall 0.09 in
Snow Depth Not available.
6:23 AM 7:48 PM
Waning Crescent, 21% visible
METAR KLSE 272253Z 15005KT 10SM OVC016 22/18 A3001 RMK AO2 SLP155 T02170183

10-Day Weather Forecast

Almanac

Astronomy

Aug. 27, 2016 Rise Set
Actual Time
Civil Twilight
Nautical Twilight
Astronomical Twilight
Moon
Length of Visible Light
Length of Day
Tomorrow will be .
, % of the Moon is Illuminated

Today's Extremes

State Highs State Lows

Community

WunderPhotos

Upload Photos

1,935,462 photos uploaded!

WunderBlog® & News

Nearby

Air Quality

  Air Quality AQ Index Pollutant
Not available.

Snow Depth

Station Depth Elevation

Earthquake Activity

City Distance Mag. Time & Date
Minimum magnitude displayed is 2.5.

Coastal Water Temperatures

Place Temperature

Stations

Nearby Weather Stations

Station Location Temp. Windchill Dew Point Humidity Wind Precip. Elev Updated Type
                   

Watches & Warnings

There are currently no watches in effect.